METAR Torp

ENTO 181520Z 25007KT CAVOK 12/02 Q1021

METAR Gardermoen

ENGM 181520Z VRB03KT CAVOK 11/M02 Q1019 NOSIG

Webcam Kjeller